Gmund, Austria
Current Conditions -  °F | °C
As of 11:20 AM on Thursday 18 Dec 2014 (Local Time) from LOWL Reporting Station
Broken Clouds Broken Clouds  
Wind Chill: 46°   Ceiling: 1800
Heat Index: 46°   Visibility: 6mi
Dew Point: 45°   Wind: 1mph
Humidity: 93%   Direction: NA
Pressure: 30.06"   Gusts: NA
Location:  48.77°N, 14.99°E
Report Text: LOWL 180920Z VRB01KT 9999 FEW005 SCT015 BKN018 08/07 Q1018 NOSIG
Loading
Personal Weather Stations






























Interactive Weather Map New forecast layout! Learn more

10-Day Weather Forecast

Advertisements
Track Severe Weather on mobile